ADDS METAR Data INFO
IDs: Format: Raw Decoded Include TAF

Data at: 1950 UTC 14 Aug 2018

KCBG 141935Z AUTO 36009KT 10SM SCT027 28/19 A2991 RMK AO2 LTG DSNT E THRU SW
KCBG 141915Z AUTO 01011G16KT 10SM CLR 29/20 A2992 RMK AO2
KCBG 141856Z AUTO 32008KT 10SM SCT027 28/21 A2993 RMK AO2
KCBG 141855Z AUTO 33009KT 10SM SCT027 28/21 A2993 RMK AO2
KCBG 141835Z AUTO 27003KT 10SM BKN027 30/21 A2992 RMK AO2
KCBG 141815Z AUTO 29004KT 10SM CLR 30/21 A2992 RMK AO2
KCBG 141756Z AUTO 17003KT 10SM CLR 29/21 A2992 RMK AO2
KCBG 141755Z AUTO 17003KT 10SM CLR 29/21 A2992 RMK AO2
KCBG 141735Z AUTO 17004KT 10SM CLR 29/21 A2992 RMK AO2
KCBG 141715Z AUTO 09003KT 10SM CLR 28/21 A2992 RMK AO2
KCBG 141656Z AUTO 00000KT 10SM SCT015 27/20 A2994 RMK AO2 LTG DSNT SW
KCBG 141655Z AUTO 00000KT 10SM SCT015 27/20 A2994 RMK AO2 LTG DSNT SW
KCBG 141635Z AUTO 00000KT 10SM SCT015 27/19 A2994 RMK AO2
KCBG 141615Z AUTO 29006KT 10SM BKN017 26/19 A2995 RMK AO2
KCBG 141556Z AUTO 30005KT 10SM SCT017 27/19 A2996 RMK AO2
KCBG 141555Z AUTO 31005KT 10SM SCT017 27/19 A2995 RMK AO2
KCBG 141535Z AUTO 30004KT 10SM CLR 26/19 A2995 RMK AO2
KCBG 141515Z AUTO 29007KT 10SM CLR 26/19 A2996 RMK AO2 LTG DSNT W
KCBG 141456Z AUTO 29006KT 10SM CLR 26/19 A2995 RMK AO2
KCBG 141455Z AUTO 28006KT 10SM CLR 26/19 A2995 RMK AO2
KCBG 141435Z AUTO 25003KT 10SM CLR 27/19 A2994 RMK AO2 LTG DSNT NW
KCBG 141415Z AUTO 27004KT 10SM CLR 26/19 A2993 RMK AO2
KCBG 141356Z AUTO 31007KT 10SM CLR 27/19 A2993 RMK AO2
KCBG 141355Z AUTO 30007KT 10SM CLR 26/19 A2993 RMK AO2
KCBG 141335Z AUTO 20004KT 10SM CLR 26/18 A2992 RMK AO2
KCBG 141315Z AUTO 20006KT 10SM CLR 24/21 A2992 RMK AO2 LTG DSNT NW
KCBG 141256Z AUTO 00000KT 10SM CLR 24/21 A2992 RMK AO2
KCBG 141255Z AUTO 00000KT 10SM CLR 24/21 A2992 RMK AO2
KCBG 141235Z AUTO 17003KT 10SM CLR 23/21 A2992 RMK AO2
KCBG 141215Z AUTO 17003KT 10SM CLR 22/21 A2991 RMK AO2
KCBG 141156Z AUTO 00000KT 10SM CLR 22/21 A2991 RMK AO2
KCBG 141155Z AUTO 00000KT 10SM CLR 22/21 A2991 RMK AO2
KCBG 141135Z AUTO 00000KT 10SM CLR 22/19 A2992 RMK AO2
KCBG 141115Z AUTO 00000KT 10SM CLR 22/19 A2992 RMK AO2
KCBG 141056Z AUTO 18003KT 10SM CLR 22/19 A2992 RMK AO2
KCBG 141055Z AUTO 18003KT 10SM CLR 22/19 A2992 RMK AO2
KCBG 141035Z AUTO 17003KT 10SM CLR 22/19 A2993 RMK AO2
KCBG 141015Z AUTO 17004KT 10SM CLR 23/19 A2993 RMK AO2
KCBG 140955Z AUTO 00000KT 10SM CLR 23/18 A2993 RMK AO2
KCBG 140935Z AUTO 00000KT 10SM CLR 23/17 A2993 RMK AO2
KCBG 140915Z AUTO 00000KT 10SM CLR 23/17 A2993 RMK AO2
KCBG 140855Z AUTO 00000KT 10SM CLR 23/17 A2993 RMK AO2
KCBG 140835Z AUTO 00000KT 10SM CLR 23/17 A2993 RMK AO2
KCBG 140815Z AUTO 00000KT 10SM CLR 23/17 A2993 RMK AO2
KCBG 140755Z AUTO 18003KT 10SM CLR 23/17 A2993 RMK AO2
KCBG 140735Z AUTO 18004KT 10SM CLR 23/17 A2994 RMK AO2
KCBG 140715Z AUTO 18004KT 10SM CLR 24/17 A2994 RMK AO2
KCBG 140655Z AUTO 17004KT 10SM CLR 24/18 A2994 RMK AO2
KCBG 140635Z AUTO 18003KT 10SM CLR 24/18 A2994 RMK AO2
KCBG 140615Z AUTO 18003KT 10SM CLR 24/18 A2995 RMK AO2
KCBG 140555Z AUTO 18004KT 10SM CLR 25/18 A2995 RMK AO2
KCBG 140535Z AUTO 19003KT 10SM CLR 25/18 A2995 RMK AO2
KCBG 140515Z AUTO 18004KT 10SM SCT070 26/18 A2995 RMK AO2
KCBG 140455Z AUTO 00000KT 10SM SCT070 25/18 A2995 RMK AO2
KCBG 140435Z AUTO 17004KT 10SM CLR 26/18 A2995 RMK AO2
KCBG 140415Z AUTO 17004KT 10SM SCT070 26/18 A2995 RMK AO2
KCBG 140355Z AUTO 17003KT 10SM CLR 26/18 A2995 RMK AO2
KCBG 140335Z AUTO 17003KT 10SM CLR 26/18 A2995 RMK AO2
KCBG 140315Z AUTO 18003KT 10SM CLR 26/18 A2995 RMK AO2
KCBG 140255Z AUTO 17003KT 10SM CLR 26/18 A2995 RMK AO2
KCBG 140235Z AUTO 00000KT 7SM CLR 26/18 A2994 RMK AO2
KCBG 140215Z AUTO 00000KT 10SM CLR 27/18 A2994 RMK AO2
KCBG 140155Z AUTO 19003KT 10SM CLR 28/19 A2994 RMK AO2
KCBG 140135Z AUTO 19003KT 10SM CLR 28/19 A2994 RMK AO2
KCBG 140115Z AUTO 19004KT 10SM CLR 29/19 A2994 RMK AO2
KCBG 140055Z AUTO 18006KT 10SM CLR 29/19 A2993 RMK AO2
KCBG 140035Z AUTO 19006KT 10SM CLR 31/19 A2993 RMK AO2
KCBG 140015Z AUTO 19005KT 10SM CLR 31/19 A2993 RMK AO2
KCBG 132355Z AUTO 18006KT 10SM CLR 32/19 A2993 RMK AO2
KCBG 132335Z AUTO 18008KT 10SM CLR 32/20 A2993 RMK AO2
KCBG 132315Z AUTO 20006KT 10SM CLR 33/20 A2994 RMK AO2
KCBG 132255Z AUTO 22006KT 10SM CLR 33/19 A2994 RMK AO2
KCBG 132235Z AUTO 21007KT 10SM CLR 33/19 A2994 RMK AO2
KCBG 132215Z AUTO 20007KT 10SM CLR 33/19 A2994 RMK AO2
KCBG 132155Z AUTO 22007KT 183V243 10SM CLR 33/20 A2995 RMK AO2
KCBG 132135Z AUTO 18007KT 10SM CLR 33/20 A2995 RMK AO2
KCBG 132115Z AUTO 20009G14KT 173V243 10SM CLR 33/20 A2995 RMK AO2
KCBG 132055Z AUTO 18006KT 10SM SCT055 33/20 A2996 RMK AO2
KCBG 132035Z AUTO 21004G14KT 10SM CLR 34/21 A2996 RMK AO2
KCBG 132015Z AUTO 20008G15KT 173V233 10SM SCT055 33/21 A2997 RMK AO2
KCBG 131955Z AUTO 20010KT 10SM SCT055 33/21 A2997 RMK AO2
KCBG 131935Z AUTO 21008G14KT 10SM SCT055 33/21 A2997 RMK AO2
KCBG 131915Z AUTO 19010G17KT 10SM CLR 33/21 A2998 RMK AO2
KCBG 131855Z AUTO 24006KT 10SM CLR 33/21 A2998 RMK AO2
KCBG 131835Z AUTO 20010G16KT 10SM CLR 33/20 A2998 RMK AO2
KCBG 131815Z AUTO 23009KT 10SM CLR 33/20 A2999 RMK AO2
KCBG 131755Z AUTO 22007KT 10SM CLR 32/20 A3000 RMK AO2
KCBG 131735Z AUTO 22007KT 10SM CLR 32/19 A3000 RMK AO2
KCBG 131715Z AUTO 18009KT 10SM CLR 31/19 A3001 RMK AO2
KCBG 131655Z AUTO 19008KT 10SM CLR 31/20 A3002 RMK AO2
KCBG 131635Z AUTO 22007KT 10SM CLR 31/19 A3002 RMK AO2
KCBG 131615Z AUTO 22008KT 10SM CLR 30/19 A3002 RMK AO2
KCBG 131555Z AUTO 17007KT 163V223 10SM CLR 29/19 A3003 RMK AO2
KCBG 131535Z AUTO 21007KT 10SM CLR 29/19 A3003 RMK AO2
KCBG 131515Z AUTO 20007KT 10SM CLR 28/19 A3003 RMK AO2
KCBG 131455Z AUTO 19006KT 10SM CLR 27/19 A3003 RMK AO2
KCBG 131435Z AUTO 19008KT 10SM CLR 26/19 A3004 RMK AO2
KCBG 131415Z AUTO 20005KT 10SM CLR 26/19 A3004 RMK AO2
KCBG 131355Z AUTO 18006KT 10SM CLR 25/22 A3004 RMK AO2
KCBG 131335Z AUTO 18006KT 10SM CLR 24/23 A3004 RMK AO2
KCBG 131315Z AUTO 16005KT 10SM CLR 24/23 A3005 RMK AO2
KCBG 131255Z AUTO 15004KT 10SM CLR 23/23 A3005 RMK AO2
KCBG 131235Z AUTO 15005KT 10SM CLR 22/22 A3005 RMK AO2
KCBG 131215Z AUTO 16003KT 10SM CLR 22/22 A3006 RMK AO2
KCBG 131155Z AUTO 16004KT 10SM CLR 22/22 A3005 RMK AO2
KCBG 131135Z AUTO 00000KT 10SM CLR 21/21 A3005 RMK AO2
KCBG 131115Z AUTO 15003KT 10SM CLR 22/22 A3005 RMK AO2
KCBG 131055Z AUTO 16003KT 10SM CLR 22/22 A3004 RMK AO2
KCBG 131035Z AUTO 17003KT 10SM CLR 21/21 A3004 RMK AO2
KCBG 131015Z AUTO 17004KT 10SM CLR 22/22 A3004 RMK AO2
KCBG 130955Z AUTO 17005KT 10SM CLR 22/22 A3004 RMK AO2
KCBG 130935Z AUTO 17006KT 10SM CLR 22/22 A3004 RMK AO2
KCBG 130915Z AUTO 17006KT 10SM CLR 22/22 A3004 RMK AO2
KCBG 130855Z AUTO 17006KT 10SM CLR 22/22 A3005 RMK AO2
KCBG 130836Z AUTO 18006KT 10SM CLR 23/22 A3005 RMK AO2
KCBG 130815Z AUTO 17007KT 10SM CLR 23/22 A3005 RMK AO2
KCBG 130755Z AUTO 17005KT 10SM CLR 22/21 A3005 RMK AO2